createdAt,value
2023-05-23T00:01:43.432Z,7.43
2023-05-23T00:04:17.177Z,6.63
2023-05-23T00:06:47.261Z,5.90
2023-05-23T00:09:17.673Z,6.82
2023-05-23T00:11:46.074Z,6.97
2023-05-23T00:14:15.155Z,8.80
2023-05-23T00:16:44.972Z,7.10
2023-05-23T00:19:15.495Z,7.72
2023-05-23T00:21:45.714Z,8.80
2023-05-23T00:24:14.522Z,8.82
2023-05-23T00:26:44.245Z,9.90
2023-05-23T00:29:16.025Z,7.82
2023-05-23T00:31:46.453Z,7.75
2023-05-23T00:34:15.571Z,8.25
2023-05-23T00:36:44.014Z,10.13
2023-05-23T00:39:19.417Z,11.05
2023-05-23T00:41:52.684Z,7.35
2023-05-23T00:44:21.542Z,7.45
2023-05-23T00:46:55.291Z,6.28
2023-05-23T00:49:24.122Z,9.10
2023-05-23T00:51:53.658Z,8.40
2023-05-23T00:54:27.708Z,6.93
2023-05-23T00:56:57.564Z,7.15
2023-05-23T00:59:27.465Z,6.90
2023-05-23T01:01:57.358Z,7.32
2023-05-23T01:04:27.017Z,9.60
2023-05-23T01:06:57.154Z,8.88
2023-05-23T01:09:28.373Z,6.70
2023-05-23T01:12:10.099Z,8.07
2023-05-23T01:14:46.078Z,9.27
2023-05-23T01:17:20.119Z,8.10
2023-05-23T01:20:00.546Z,8.00
2023-05-23T01:22:41.556Z,7.18
2023-05-23T01:25:23.126Z,10.45
2023-05-23T01:27:56.489Z,12.38
2023-05-23T01:30:26.976Z,13.85
2023-05-23T01:32:56.907Z,15.13
2023-05-23T01:35:27.773Z,13.25
2023-05-23T01:37:56.426Z,13.98
2023-05-23T01:40:25.925Z,15.05
2023-05-23T01:42:57.765Z,12.73
2023-05-23T01:45:29.097Z,12.32
2023-05-23T01:47:58.660Z,12.98
2023-05-23T01:50:27.586Z,11.27
2023-05-23T01:52:57.149Z,12.57
2023-05-23T01:55:27.612Z,12.40
2023-05-23T01:57:58.660Z,15.05
2023-05-23T02:00:27.230Z,13.60
2023-05-23T02:02:55.711Z,10.82
2023-05-23T02:05:24.178Z,14.40
2023-05-23T02:07:52.322Z,11.30
2023-05-23T02:10:20.941Z,14.70
2023-05-23T02:12:49.295Z,16.60
2023-05-23T02:15:18.814Z,15.23
2023-05-23T02:17:48.329Z,13.30
2023-05-23T02:20:19.031Z,14.23
2023-05-23T02:22:47.670Z,14.43
2023-05-23T02:25:16.657Z,14.35
2023-05-23T02:27:44.796Z,15.05
2023-05-23T02:30:14.375Z,13.80
2023-05-23T02:32:43.915Z,14.50
2023-05-23T02:35:13.146Z,14.07
2023-05-23T02:37:41.257Z,14.57
2023-05-23T02:40:10.568Z,14.98
2023-05-23T02:42:39.110Z,10.30
2023-05-23T02:45:08.327Z,17.38
2023-05-23T02:47:36.473Z,15.60
2023-05-23T02:50:07.020Z,16.67
2023-05-23T02:52:35.170Z,15.15
2023-05-23T02:55:03.609Z,15.15
2023-05-23T02:57:32.033Z,17.80
2023-05-23T03:00:00.173Z,15.75
2023-05-23T03:02:28.424Z,16.88
2023-05-23T03:04:57.864Z,18.17
2023-05-23T03:07:28.893Z,18.00
2023-05-23T03:09:57.281Z,20.45
2023-05-23T03:12:25.859Z,14.88
2023-05-23T03:14:54.348Z,19.55
2023-05-23T03:17:22.637Z,19.88
2023-05-23T03:19:51.120Z,19.38
2023-05-23T03:22:19.563Z,17.75
2023-05-23T03:24:49.050Z,18.05
2023-05-23T03:27:17.423Z,19.88
2023-05-23T03:29:45.574Z,24.95
2023-05-23T03:32:13.775Z,21.38
2023-05-23T03:34:42.282Z,20.20
2023-05-23T03:37:11.252Z,19.85
2023-05-23T03:39:39.997Z,24.55
2023-05-23T03:42:09.711Z,20.77
2023-05-23T03:44:37.860Z,24.08
2023-05-23T03:47:07.235Z,27.20
2023-05-23T03:49:35.859Z,28.60
2023-05-23T03:52:04.274Z,29.27
2023-05-23T03:54:32.449Z,29.60
2023-05-23T03:57:00.572Z,28.85
2023-05-23T03:59:30.935Z,27.15
2023-05-23T04:02:00.851Z,26.00
2023-05-23T04:04:29.179Z,22.70
2023-05-23T04:06:58.607Z,22.05
2023-05-23T04:09:26.748Z,24.95
2023-05-23T04:11:54.889Z,24.85
2023-05-23T04:14:23.140Z,23.42
2023-05-23T04:16:52.973Z,26.27
2023-05-23T04:19:21.496Z,25.77
2023-05-23T04:21:50.098Z,23.73
2023-05-23T04:24:19.032Z,25.05
2023-05-23T04:26:47.534Z,20.35
2023-05-23T04:29:16.500Z,18.40
2023-05-23T04:31:46.166Z,18.02
2023-05-23T04:34:17.577Z,18.58
2023-05-23T04:36:46.063Z,18.00
2023-05-23T04:39:14.496Z,20.88
2023-05-23T04:41:45.330Z,18.23
2023-05-23T04:44:15.008Z,20.58
2023-05-23T04:46:43.208Z,17.08
2023-05-23T04:49:11.824Z,17.77
2023-05-23T04:51:41.474Z,17.50
2023-05-23T04:54:10.299Z,17.75
2023-05-23T04:56:38.858Z,15.43
2023-05-23T04:59:09.078Z,16.17
2023-05-23T05:01:40.833Z,18.67
2023-05-23T05:04:09.231Z,14.57
2023-05-23T05:06:38.704Z,18.98
2023-05-23T05:09:08.239Z,16.60
2023-05-23T05:11:36.470Z,17.15
2023-05-23T05:14:06.334Z,14.30
2023-05-23T05:16:34.907Z,14.82
2023-05-23T05:19:03.669Z,14.90
2023-05-23T05:21:32.480Z,13.93
2023-05-23T05:24:01.781Z,13.05
2023-05-23T05:26:31.964Z,14.43
2023-05-23T05:29:00.153Z,14.13
2023-05-23T05:31:29.891Z,13.00
2023-05-23T05:33:58.112Z,14.55
2023-05-23T05:36:26.899Z,11.75
2023-05-23T05:38:55.068Z,10.93
2023-05-23T05:41:23.741Z,11.88
2023-05-23T05:43:53.544Z,14.00
2023-05-23T05:46:21.747Z,11.77
2023-05-23T05:48:49.912Z,11.68
2023-05-23T05:51:18.263Z,11.40
2023-05-23T05:53:46.457Z,9.70
2023-05-23T05:56:14.745Z,10.35
2023-05-23T05:58:42.937Z,10.43
2023-05-23T06:01:12.600Z,9.57
2023-05-23T06:03:41.710Z,12.85
2023-05-23T06:06:10.242Z,11.82
2023-05-23T06:08:38.889Z,10.25
2023-05-23T06:11:07.678Z,10.00
2023-05-23T06:13:35.915Z,13.27
2023-05-23T06:16:04.513Z,14.32
2023-05-23T06:18:34.120Z,13.15
2023-05-23T06:21:02.301Z,12.52
2023-05-23T06:23:30.440Z,12.30
2023-05-23T06:25:59.994Z,13.10
2023-05-23T06:28:28.142Z,13.90
2023-05-23T06:30:56.298Z,12.70
2023-05-23T06:33:24.418Z,10.48
2023-05-23T06:35:53.947Z,11.88
2023-05-23T06:38:22.388Z,12.93
2023-05-23T06:40:50.525Z,12.15
2023-05-23T06:43:18.958Z,14.60
2023-05-23T06:45:48.396Z,10.65
2023-05-23T06:48:16.643Z,13.35
2023-05-23T06:50:45.148Z,14.88
2023-05-23T06:53:16.635Z,9.43
2023-05-23T06:55:46.959Z,12.45
2023-05-23T06:58:15.096Z,10.05
2023-05-23T07:00:43.444Z,10.90
2023-05-23T07:03:12.823Z,13.10
2023-05-23T07:05:41.576Z,12.13
2023-05-23T07:08:11.549Z,9.70
2023-05-23T07:10:42.399Z,12.75
2023-05-23T07:13:11.155Z,11.77
2023-05-23T07:15:39.288Z,13.73
2023-05-23T07:18:07.605Z,12.68
2023-05-23T07:20:35.868Z,14.68
2023-05-23T07:23:04.103Z,14.27
2023-05-23T07:25:32.581Z,11.93
2023-05-23T07:28:02.115Z,13.75
2023-05-23T07:30:32.030Z,14.25
2023-05-23T07:33:01.887Z,13.82
2023-05-23T07:35:30.111Z,11.27
2023-05-23T07:37:58.302Z,12.65
2023-05-23T07:40:26.717Z,8.82
2023-05-23T07:42:55.867Z,12.02
2023-05-23T07:45:25.376Z,12.20
2023-05-23T07:47:54.248Z,10.02
2023-05-23T07:50:22.382Z,10.70
2023-05-23T07:52:52.109Z,10.80
2023-05-23T07:55:20.557Z,9.55
2023-05-23T07:57:48.727Z,11.55
2023-05-23T08:00:18.081Z,11.32
2023-05-23T08:02:47.668Z,10.88
2023-05-23T08:05:15.845Z,8.52
2023-05-23T08:07:43.951Z,8.95
2023-05-23T08:10:12.506Z,9.13
2023-05-23T08:12:40.629Z,9.45
2023-05-23T08:15:09.987Z,11.05
2023-05-23T08:17:38.210Z,8.27
2023-05-23T08:20:09.911Z,8.40
2023-05-23T08:22:38.051Z,7.15
2023-05-23T08:25:07.321Z,7.90
2023-05-23T08:27:36.786Z,8.20
2023-05-23T08:30:06.856Z,6.93
2023-05-23T08:32:35.038Z,8.30
2023-05-23T08:35:03.434Z,6.47
2023-05-23T08:37:33.280Z,8.32
2023-05-23T08:43:49.774Z,5.40
2023-05-23T08:46:18.255Z,5.60
2023-05-23T08:48:54.767Z,6.35
2023-05-23T08:51:26.186Z,6.43
2023-05-23T08:53:57.056Z,5.07
2023-05-23T08:56:25.985Z,5.82
2023-05-23T08:58:54.808Z,6.20
2023-05-23T09:01:24.896Z,4.88
2023-05-23T09:03:53.129Z,4.72
2023-05-23T09:06:23.315Z,4.32
2023-05-23T09:08:52.486Z,3.47
2023-05-23T09:11:24.318Z,3.05
2023-05-23T09:13:52.619Z,4.22
2023-05-23T09:16:21.512Z,3.40
2023-05-23T09:18:49.675Z,2.17
2023-05-23T09:21:17.880Z,2.63
2023-05-23T09:23:46.291Z,2.75
2023-05-23T09:26:14.451Z,3.15
2023-05-23T09:28:45.819Z,2.83
2023-05-23T09:31:14.587Z,4.28
2023-05-23T09:33:47.356Z,2.47
2023-05-23T09:36:15.780Z,2.60
2023-05-23T09:38:45.285Z,3.05
2023-05-23T09:41:14.142Z,3.33
2023-05-23T09:43:51.829Z,3.30
2023-05-23T09:46:22.321Z,2.90
2023-05-23T09:48:52.277Z,5.30
2023-05-23T09:51:22.474Z,5.05
2023-05-23T09:53:52.180Z,4.93
2023-05-23T09:56:21.379Z,5.78
2023-05-23T09:58:52.210Z,6.28
2023-05-23T10:01:21.999Z,7.68
2023-05-23T10:03:51.820Z,6.63
2023-05-23T10:06:27.184Z,7.25
2023-05-23T10:08:58.467Z,8.13
2023-05-23T10:11:59.906Z,8.70
2023-05-23T10:14:32.301Z,7.72
2023-05-23T10:17:05.170Z,8.63
2023-05-23T10:19:39.595Z,8.68
2023-05-23T10:22:11.387Z,8.20
2023-05-23T10:24:39.857Z,7.85
2023-05-23T10:27:08.651Z,9.75
2023-05-23T10:29:38.955Z,9.68
2023-05-23T10:32:08.658Z,6.85
2023-05-23T10:34:57.823Z,7.30
2023-05-23T10:37:32.588Z,7.82
2023-05-23T10:40:06.174Z,4.45
2023-05-23T10:42:44.120Z,4.10
2023-05-23T10:45:21.014Z,6.50
2023-05-23T10:47:50.374Z,6.13
2023-05-23T10:50:32.992Z,3.88
2023-05-23T10:53:03.518Z,3.42
2023-05-23T10:55:35.854Z,3.13
2023-05-23T10:58:16.928Z,3.60
2023-05-23T11:00:54.609Z,3.25
2023-05-23T11:03:33.910Z,3.45
2023-05-23T11:06:02.896Z,3.60
2023-05-23T11:08:47.549Z,4.25
2023-05-23T11:11:16.334Z,3.55
2023-05-23T11:14:00.484Z,4.03
2023-05-23T11:16:32.612Z,3.28
2023-05-23T11:19:23.074Z,5.13
2023-05-23T11:21:53.473Z,4.57
2023-05-23T11:24:21.854Z,3.35
2023-05-23T11:27:00.511Z,5.22
2023-05-23T11:29:30.016Z,3.97
2023-05-23T11:31:59.781Z,4.55
2023-05-23T11:34:28.087Z,4.82
2023-05-23T11:36:56.981Z,9.32
2023-05-23T11:39:25.189Z,5.28
2023-05-23T11:42:01.173Z,7.13
2023-05-23T11:44:29.557Z,5.40
2023-05-23T11:47:03.390Z,6.90
2023-05-23T11:49:32.525Z,6.75
2023-05-23T11:52:01.528Z,3.83
2023-05-23T11:54:30.394Z,5.65
2023-05-23T11:56:59.047Z,5.13
2023-05-23T11:59:28.693Z,4.80
2023-05-23T12:01:57.244Z,4.50
2023-05-23T12:04:27.760Z,6.20
2023-05-23T12:06:56.051Z,4.57
2023-05-23T12:09:24.604Z,5.78
2023-05-23T12:11:52.769Z,6.03
2023-05-23T12:14:21.383Z,5.50
2023-05-23T12:16:50.027Z,7.05
2023-05-23T12:19:18.768Z,4.40
2023-05-23T12:21:50.014Z,6.15
2023-05-23T12:24:20.208Z,6.15
2023-05-23T12:26:52.001Z,7.50
2023-05-23T12:29:22.630Z,4.93
2023-05-23T12:31:52.961Z,4.90
2023-05-23T12:34:22.648Z,5.40
2023-05-23T12:37:10.592Z,5.40
2023-05-23T12:39:45.685Z,4.57
2023-05-23T12:42:13.892Z,6.53
2023-05-23T12:44:43.891Z,8.48
2023-05-23T12:47:12.354Z,3.20
2023-05-23T12:49:41.090Z,7.88
2023-05-23T12:52:10.677Z,5.10
2023-05-23T12:54:39.190Z,5.20
2023-05-23T12:57:07.779Z,6.57
2023-05-23T12:59:35.915Z,7.88
2023-05-23T13:02:04.449Z,6.32
2023-05-23T13:04:32.786Z,8.32
2023-05-23T13:07:01.583Z,9.13
2023-05-23T13:09:31.154Z,6.10
2023-05-23T13:11:59.897Z,11.82
2023-05-23T13:14:28.023Z,5.57
2023-05-23T13:16:56.261Z,5.07
2023-05-23T13:19:24.929Z,8.70
2023-05-23T13:21:53.565Z,6.20
2023-05-23T13:24:21.756Z,10.63
2023-05-23T13:26:51.476Z,6.57
2023-05-23T13:29:19.735Z,6.95
2023-05-23T13:31:47.898Z,9.32
2023-05-23T13:34:16.168Z,8.85
2023-05-23T13:36:44.335Z,9.15
2023-05-23T13:39:12.502Z,8.25
2023-05-23T13:41:40.896Z,6.97
2023-05-23T13:44:10.527Z,10.32
2023-05-23T13:46:38.735Z,7.22
2023-05-23T13:49:07.310Z,11.85
2023-05-23T13:51:37.312Z,12.18
2023-05-23T13:54:06.135Z,11.43
2023-05-23T13:56:34.742Z,5.35
2023-05-23T13:59:03.042Z,7.47
2023-05-23T14:01:32.577Z,8.73
2023-05-23T14:04:00.890Z,7.53
2023-05-23T14:06:29.056Z,7.47
2023-05-23T14:08:57.628Z,4.63
2023-05-23T14:11:25.814Z,9.88
2023-05-23T14:13:54.000Z,10.43
2023-05-23T14:16:22.189Z,8.70
2023-05-23T14:18:51.797Z,4.93
2023-05-23T14:21:19.955Z,6.07
2023-05-23T14:23:48.409Z,9.95
2023-05-23T14:26:16.625Z,8.43
2023-05-23T14:28:45.092Z,3.63
2023-05-23T14:31:13.222Z,6.88
2023-05-23T14:33:41.892Z,7.47
2023-05-23T14:36:11.524Z,8.77
2023-05-23T14:38:39.877Z,6.85
2023-05-23T14:41:08.029Z,7.80
2023-05-23T14:43:36.144Z,7.72
2023-05-23T14:46:04.623Z,8.18
2023-05-23T14:48:33.224Z,10.32
2023-05-23T14:51:02.032Z,6.03
2023-05-23T14:53:31.712Z,11.23
2023-05-23T14:56:00.196Z,9.63
2023-05-23T14:58:28.418Z,9.20
2023-05-23T15:00:58.526Z,9.45
2023-05-23T15:03:26.939Z,6.63
2023-05-23T15:05:55.201Z,8.80
2023-05-23T15:08:23.337Z,14.13
2023-05-23T15:10:52.992Z,12.13
2023-05-23T15:13:21.305Z,13.13
2023-05-23T15:15:49.867Z,11.30
2023-05-23T15:18:31.763Z,7.57
2023-05-23T15:21:06.425Z,8.18
2023-05-23T15:23:34.556Z,7.45
2023-05-23T15:26:04.284Z,9.30
2023-05-23T15:28:32.441Z,8.52
2023-05-23T15:31:00.674Z,7.05
2023-05-23T15:33:28.889Z,5.53
2023-05-23T15:35:59.148Z,10.20
2023-05-23T15:38:27.340Z,7.63
2023-05-23T15:40:56.662Z,12.55
2023-05-23T15:43:26.321Z,5.72
2023-05-23T15:45:54.571Z,8.15
2023-05-23T15:48:22.756Z,7.72
2023-05-23T15:50:51.070Z,10.95
2023-05-23T15:53:19.226Z,9.00
2023-05-23T15:55:47.562Z,13.60
2023-05-23T15:58:16.788Z,6.97
2023-05-23T16:00:46.480Z,10.48
2023-05-23T16:03:14.714Z,11.85
2023-05-23T16:05:43.155Z,8.73
2023-05-23T16:08:11.909Z,10.07
2023-05-23T16:10:40.200Z,9.70
2023-05-23T16:13:09.169Z,9.10
2023-05-23T16:15:37.707Z,10.50
2023-05-23T16:18:07.385Z,10.13
2023-05-23T16:20:35.991Z,9.75
2023-05-23T16:23:04.273Z,5.55
2023-05-23T16:25:32.712Z,6.25
2023-05-23T16:28:00.870Z,8.98
2023-05-23T16:30:29.068Z,7.38
2023-05-23T16:32:57.699Z,6.55
2023-05-23T16:35:27.282Z,7.35
2023-05-23T16:37:55.437Z,9.57
2023-05-23T16:40:23.633Z,8.13
2023-05-23T16:42:51.776Z,5.10
2023-05-23T16:45:19.975Z,7.53
2023-05-23T16:47:48.239Z,6.47
2023-05-23T16:50:16.638Z,7.88
2023-05-23T16:52:46.335Z,11.50
2023-05-23T16:55:14.488Z,7.47
2023-05-23T16:57:42.675Z,7.00
2023-05-23T17:00:12.931Z,11.90
2023-05-23T17:02:41.453Z,8.20
2023-05-23T17:05:10.181Z,4.90
2023-05-23T17:07:38.371Z,12.13
2023-05-23T17:10:09.484Z,6.90
2023-05-23T17:12:37.699Z,9.82
2023-05-23T17:15:07.267Z,13.95
2023-05-23T17:17:35.528Z,7.88
2023-05-23T17:20:03.969Z,12.95
2023-05-23T17:22:32.485Z,7.95
2023-05-23T17:25:01.911Z,10.73
2023-05-23T17:27:31.456Z,8.40
2023-05-23T17:29:59.878Z,3.65
2023-05-23T17:32:28.314Z,5.13
2023-05-23T17:34:56.515Z,10.57
2023-05-23T17:37:26.207Z,11.38
2023-05-23T17:39:57.371Z,10.65
2023-05-23T17:42:26.353Z,5.93
2023-05-23T17:44:56.200Z,8.00
2023-05-23T17:47:24.439Z,6.25
2023-05-23T17:49:52.681Z,6.55
2023-05-23T17:52:20.915Z,5.35
2023-05-23T17:54:49.111Z,7.15
2023-05-23T17:57:17.388Z,7.28
2023-05-23T17:59:45.534Z,6.40
2023-05-23T18:02:15.105Z,8.45
2023-05-23T18:04:43.491Z,9.25
2023-05-23T18:07:13.728Z,5.15
2023-05-23T18:09:42.528Z,7.20
2023-05-23T18:12:11.586Z,6.07
2023-05-23T18:14:40.103Z,7.88
2023-05-23T18:17:09.975Z,9.52
2023-05-23T18:19:39.642Z,7.45
2023-05-23T18:22:07.925Z,8.48
2023-05-23T18:24:36.484Z,7.25
2023-05-23T18:27:04.931Z,6.95
2023-05-23T18:29:33.611Z,10.02
2023-05-23T18:32:01.757Z,5.80
2023-05-23T18:34:29.942Z,5.97
2023-05-23T18:36:59.548Z,5.03
2023-05-23T18:39:28.133Z,5.07
2023-05-23T18:41:56.266Z,7.05
2023-05-23T18:44:24.638Z,10.57
2023-05-23T18:46:53.139Z,6.50
2023-05-23T18:49:22.083Z,5.93
2023-05-23T18:51:51.994Z,11.23
2023-05-23T18:54:21.495Z,5.00
2023-05-23T18:56:49.954Z,6.72
2023-05-23T18:59:18.097Z,7.07
2023-05-23T19:01:46.571Z,8.80
2023-05-23T19:04:15.062Z,7.80
2023-05-23T19:06:43.665Z,8.80
2023-05-23T19:09:25.704Z,9.48
2023-05-23T19:11:55.742Z,8.40
2023-05-23T19:14:23.883Z,6.60
2023-05-23T19:16:52.194Z,6.35
2023-05-23T19:19:20.637Z,4.60
2023-05-23T19:21:49.027Z,5.43
2023-05-23T19:24:17.149Z,5.82
2023-05-23T19:26:45.300Z,7.30
2023-05-23T19:29:14.970Z,6.70
2023-05-23T19:31:43.122Z,5.43
2023-05-23T19:34:25.233Z,8.68
2023-05-23T19:36:53.360Z,5.88
2023-05-23T19:39:21.578Z,7.95
2023-05-23T19:41:49.740Z,7.05
2023-05-23T19:44:19.328Z,5.13
2023-05-23T19:46:47.462Z,8.15
2023-05-23T19:49:17.739Z,12.18
2023-05-23T19:51:45.958Z,14.75
2023-05-23T19:54:14.789Z,7.60
2023-05-23T19:56:43.037Z,10.00
2023-05-23T19:59:11.533Z,6.15
2023-05-23T20:01:41.243Z,5.63
2023-05-23T20:04:12.796Z,7.82
2023-05-23T20:06:41.212Z,5.38
2023-05-23T20:09:09.745Z,5.43
2023-05-23T20:11:37.984Z,8.23
2023-05-23T20:14:06.167Z,11.75
2023-05-23T20:16:35.089Z,6.88
2023-05-23T20:19:04.704Z,6.82
2023-05-23T20:21:33.620Z,9.60
2023-05-23T20:24:01.969Z,7.88
2023-05-23T20:26:30.131Z,8.77
2023-05-23T20:28:58.422Z,6.65
2023-05-23T20:31:26.633Z,6.70
2023-05-23T20:33:54.806Z,9.60
2023-05-23T20:36:25.129Z,5.60
2023-05-23T20:38:53.642Z,7.70
2023-05-23T20:41:23.437Z,9.85
2023-05-23T20:43:51.637Z,7.13
2023-05-23T20:46:19.933Z,10.20
2023-05-23T20:48:48.100Z,8.25
2023-05-23T20:51:16.291Z,7.22
2023-05-23T20:53:45.888Z,6.25
2023-05-23T20:56:14.564Z,7.93
2023-05-23T20:58:43.261Z,8.25
2023-05-23T21:01:11.452Z,7.60
2023-05-23T21:03:39.676Z,3.35
2023-05-23T21:06:08.445Z,4.32
2023-05-23T21:08:36.928Z,9.85
2023-05-23T21:11:06.508Z,9.40
2023-05-23T21:13:34.858Z,7.88
2023-05-23T21:16:03.031Z,6.97
2023-05-23T21:18:31.461Z,5.97
2023-05-23T21:20:59.663Z,5.75
2023-05-23T21:23:27.918Z,7.07
2023-05-23T21:25:57.020Z,6.22
2023-05-23T21:28:26.954Z,7.03
2023-05-23T21:30:55.614Z,8.27
2023-05-23T21:33:24.001Z,10.60
2023-05-23T21:35:52.280Z,6.32
2023-05-23T21:38:20.418Z,6.53
2023-05-23T21:40:48.938Z,7.47
2023-05-23T21:43:17.096Z,5.60
2023-05-23T21:45:46.852Z,6.95
2023-05-23T21:48:15.242Z,9.00
2023-05-23T21:50:44.071Z,8.25
2023-05-23T21:53:12.324Z,3.53
2023-05-23T21:55:41.158Z,12.48
2023-05-23T21:58:09.291Z,5.88
2023-05-23T22:00:37.476Z,8.35
2023-05-23T22:03:07.312Z,8.02
2023-05-23T22:05:35.728Z,8.93
2023-05-23T22:08:04.575Z,5.80
2023-05-23T22:10:34.850Z,7.22
2023-05-23T22:13:03.776Z,7.53
2023-05-23T22:15:32.598Z,10.98
2023-05-23T22:18:01.399Z,6.35
2023-05-23T22:20:34.164Z,7.00
2023-05-23T22:23:03.162Z,7.28
2023-05-23T22:25:32.852Z,8.45
2023-05-23T22:28:01.759Z,8.30
2023-05-23T22:30:30.008Z,15.13
2023-05-23T22:32:58.490Z,7.97
2023-05-23T22:35:26.712Z,6.13
2023-05-23T22:37:56.461Z,5.97
2023-05-23T22:40:24.598Z,7.97
2023-05-23T22:42:52.787Z,7.65
2023-05-23T22:45:21.077Z,7.68
2023-05-23T22:47:50.755Z,6.03
2023-05-23T22:50:19.045Z,8.02
2023-05-23T22:52:48.941Z,7.07
2023-05-23T22:55:18.478Z,9.27
2023-05-23T22:57:46.859Z,6.88
2023-05-23T23:00:15.531Z,7.22
2023-05-23T23:02:44.793Z,11.23
2023-05-23T23:05:13.429Z,13.02
2023-05-23T23:07:41.968Z,7.78
2023-05-23T23:10:10.968Z,11.13
2023-05-23T23:12:40.761Z,6.18
2023-05-23T23:15:09.947Z,4.60
2023-05-23T23:17:38.612Z,5.63
2023-05-23T23:20:09.363Z,8.18
2023-05-23T23:22:37.988Z,9.88
2023-05-23T23:25:10.413Z,7.95
2023-05-23T23:27:39.974Z,12.05
2023-05-23T23:30:09.673Z,7.90
2023-05-23T23:32:37.840Z,7.60
2023-05-23T23:35:06.761Z,18.77
2023-05-23T23:37:34.925Z,10.65
2023-05-23T23:40:03.235Z,12.82
2023-05-23T23:42:31.653Z,8.07
2023-05-23T23:45:01.780Z,7.68
2023-05-23T23:47:29.948Z,12.98
2023-05-23T23:49:58.350Z,13.52
2023-05-23T23:52:28.395Z,7.85
2023-05-23T23:54:56.663Z,13.85
2023-05-23T23:57:24.786Z,12.55
2023-05-23T23:59:53.348Z,9.73
